Time;durP1;ratioP1;P1;durP2;ratioP2;P2;SDS_P1;SDS_P2;PMS_P1;PMS_P2;Temp;Humidity;BMP_temperature;BMP_pressure;BME280_temperature;BME280_humidity;BME280_pressure;Samples;Min_cycle;Max_cycle;Signal;HPM_P1;HPM_P2
2022/04/12 00:00:11;;;;;;;7.05;4.13;;;11.40;76.00;;;;;;5029943;28;20406;-75
2022/04/12 00:02:37;;;;;;;7.45;4.07;;;11.40;75.90;;;;;;5029927;28;20037;-76
2022/04/12 00:05:02;;;;;;;8.50;4.15;;;11.40;76.50;;;;;;5030061;28;20033;-75
2022/04/12 00:07:28;;;;;;;8.65;3.90;;;11.40;75.90;;;;;;5029935;28;20096;-76
2022/04/12 00:09:53;;;;;;;7.00;3.90;;;11.30;75.90;;;;;;5012484;28;20056;-77
2022/04/12 00:12:19;;;;;;;7.10;4.10;;;11.30;75.90;;;;;;5030140;28;20032;-76
2022/04/12 00:14:44;;;;;;;7.10;4.13;;;11.40;75.90;;;;;;5029902;28;20017;-75
2022/04/12 00:20:02;;;;;;;7.50;4.28;;;11.40;75.90;;;;;;5013951;28;20049;-77
2022/04/12 00:22:28;;;;;;;7.80;4.10;;;11.40;76.00;;;;;;5012123;28;20033;-74
2022/04/12 00:24:54;;;;;;;7.22;4.10;;;11.40;76.00;;;;;;5029941;28;20159;-77
2022/04/12 00:27:20;;;;;;;6.75;4.00;;;11.40;76.20;;;;;;5029187;28;20100;-74
2022/04/12 00:29:45;;;;;;;7.53;4.18;;;11.40;76.00;;;;;;5012186;28;20022;-74
2022/04/12 00:32:11;;;;;;;6.72;4.38;;;11.40;76.00;;;;;;5029673;28;20112;-75
2022/04/12 00:34:37;;;;;;;6.60;3.92;;;11.40;76.00;;;;;;5029758;28;20462;-76
2022/04/12 00:37:03;;;;;;;7.47;4.30;;;11.40;76.00;;;;;;5011606;28;20030;-75
2022/04/12 00:39:30;;;;;;;8.85;4.20;;;11.30;76.50;;;;;;5029599;28;20037;-76
2022/04/12 00:41:57;;;;;;;6.93;3.80;;;11.40;75.90;;;;;;5029426;28;20051;-74
2022/04/12 00:44:22;;;;;;;6.75;4.05;;;11.30;75.90;;;;;;5028428;28;20029;-75
2022/04/12 00:46:48;;;;;;;6.72;4.07;;;11.30;75.90;;;;;;5028739;28;20041;-73
2022/04/12 00:49:13;;;;;;;7.65;3.90;;;11.40;76.10;;;;;;5029392;28;20024;-75
2022/04/12 00:51:39;;;;;;;8.07;3.90;;;11.30;75.90;;;;;;5011456;28;20040;-76
2022/04/12 00:54:05;;;;;;;6.50;3.60;;;11.30;75.90;;;;;;5029375;28;20549;-75
2022/04/12 00:56:31;;;;;;;7.10;3.97;;;11.30;75.90;;;;;;5028582;28;20083;-74
2022/04/12 00:59:00;;;;;;;6.80;4.22;;;11.30;75.80;;;;;;5028172;28;20037;-75
2022/04/12 01:01:25;;;;;;;6.80;4.22;;;11.30;75.90;;;;;;5029339;28;20113;-76
2022/04/12 01:03:51;;;;;;;6.47;3.88;;;11.30;75.90;;;;;;5028869;28;20503;-75
2022/04/12 01:06:18;;;;;;;7.70;4.15;;;11.30;75.90;;;;;;5010928;28;20029;-76
2022/04/12 01:08:43;;;;;;;6.20;3.97;;;11.30;75.90;;;;;;5029246;28;20024;-76
2022/04/12 01:11:10;;;;;;;7.32;3.92;;;11.30;76.00;;;;;;5011222;28;20116;-74
2022/04/12 01:13:36;;;;;;;6.97;4.28;;;11.30;76.00;;;;;;5007958;28;20030;-75
2022/04/12 01:16:04;;;;;;;6.82;4.30;;;11.30;76.00;;;;;;5021322;28;20036;-74
2022/04/12 01:18:30;;;;;;;8.35;4.68;;;11.30;76.00;;;;;;5011282;28;20075;-77
2022/04/12 01:20:55;;;;;;;7.20;4.32;;;11.30;76.00;;;;;;5010971;28;20029;-76
2022/04/12 01:23:27;;;;;;;6.95;4.35;;;11.30;76.00;;;;;;5011062;28;20138;-76
2022/04/12 01:25:53;;;;;;;7.43;4.07;;;11.30;76.00;;;;;;5028735;28;20087;-77
2022/04/12 01:28:18;;;;;;;6.35;3.78;;;11.30;76.00;;;;;;5010708;28;20041;-76
2022/04/12 01:30:44;;;;;;;6.28;4.10;;;11.30;76.00;;;;;;5028364;28;20551;-75
2022/04/12 01:33:10;;;;;;;7.20;4.22;;;11.30;76.00;;;;;;5028552;28;20025;-76
2022/04/12 01:35:36;;;;;;;7.82;4.45;;;11.30;75.90;;;;;;5028303;28;20027;-76
2022/04/12 01:38:01;;;;;;;7.85;4.32;;;11.20;75.80;;;;;;5028455;28;20029;-75
2022/04/12 01:40:27;;;;;;;7.75;4.40;;;11.30;75.80;;;;;;5007528;28;20030;-75
2022/04/12 01:42:52;;;;;;;7.10;4.60;;;11.30;75.90;;;;;;5025506;28;20079;-74
2022/04/12 01:45:18;;;;;;;7.30;4.38;;;11.30;75.80;;;;;;5010953;28;20490;-77
2022/04/12 01:47:44;;;;;;;8.18;4.35;;;11.30;75.80;;;;;;5027908;28;20037;-74
2022/04/12 01:50:10;;;;;;;6.97;4.35;;;11.30;75.80;;;;;;5028270;28;20560;-75
2022/04/12 01:52:35;;;;;;;7.07;4.15;;;11.30;75.80;;;;;;5028295;28;20030;-77
2022/04/12 01:55:02;;;;;;;6.93;4.38;;;11.30;75.90;;;;;;5028282;28;20121;-75
2022/04/12 01:57:28;;;;;;;8.00;4.55;;;11.30;75.90;;;;;;5028175;28;20033;-75
2022/04/12 01:59:53;;;;;;;6.65;4.25;;;11.30;75.90;;;;;;5028365;28;20038;-75
2022/04/12 02:02:19;;;;;;;8.23;4.80;;;11.30;75.90;;;;;;5010366;28;20040;-75
2022/04/12 02:04:44;;;;;;;7.65;4.47;;;11.30;75.90;;;;;;5028304;28;20025;-75
2022/04/12 02:07:10;;;;;;;7.30;4.28;;;11.30;75.80;;;;;;5027891;28;20075;-78
2022/04/12 02:09:35;;;;;;;8.57;4.78;;;11.30;75.70;;;;;;5014592;28;20555;-76
2022/04/12 02:12:01;;;;;;;7.82;4.78;;;11.30;75.70;;;;;;5034899;28;20044;-76
2022/04/12 02:14:26;;;;;;;7.43;4.60;;;11.30;75.80;;;;;;5034636;28;20068;-74
2022/04/12 02:16:52;;;;;;;6.55;4.15;;;11.30;75.70;;;;;;5034540;28;20026;-77
2022/04/12 02:19:17;;;;;;;6.40;4.13;;;11.30;75.80;;;;;;5034826;28;20449;-74
2022/04/12 02:21:43;;;;;;;7.43;4.32;;;11.30;75.80;;;;;;5016955;28;20032;-75
2022/04/12 02:24:08;;;;;;;6.97;4.30;;;11.30;75.80;;;;;;5016876;28;20483;-74
2022/04/12 02:26:34;;;;;;;8.10;4.32;;;11.30;75.90;;;;;;5016775;28;20546;-76
2022/04/12 02:29:00;;;;;;;8.18;4.75;;;11.30;75.90;;;;;;5034667;28;20104;-79
2022/04/12 02:31:25;;;;;;;7.57;4.60;;;11.20;75.90;;;;;;5034209;28;20031;-76
2022/04/12 02:33:51;;;;;;;7.95;4.60;;;11.30;75.90;;;;;;5034538;28;20021;-75
2022/04/12 02:36:16;;;;;;;7.60;4.38;;;11.30;75.80;;;;;;5033621;28;20387;-76
2022/04/12 02:38:42;;;;;;;7.15;4.45;;;11.20;75.90;;;;;;5034505;28;20512;-75
2022/04/12 02:41:07;;;;;;;7.80;4.78;;;11.30;75.90;;;;;;5034136;28;20083;-75
2022/04/12 02:43:33;;;;;;;8.40;4.70;;;11.30;75.90;;;;;;5018709;28;21715;-77
2022/04/12 02:45:58;;;;;;;7.43;4.53;;;11.30;75.90;;;;;;5015557;28;20268;-76
2022/04/12 02:48:24;;;;;;;7.43;4.47;;;11.30;75.90;;;;;;5034544;28;20116;-76
2022/04/12 02:50:50;;;;;;;7.70;4.35;;;11.30;75.80;;;;;;5016692;28;20079;-76
2022/04/12 02:53:15;;;;;;;7.05;4.47;;;11.30;75.80;;;;;;5034131;28;20033;-75
2022/04/12 02:55:41;;;;;;;7.38;4.68;;;11.30;75.80;;;;;;5016105;28;20072;-75
2022/04/12 02:58:06;;;;;;;7.55;4.43;;;11.30;75.90;;;;;;5033798;28;20449;-76
2022/04/12 03:00:32;;;;;;;7.32;4.68;;;11.30;75.90;;;;;;5016332;28;20586;-76
2022/04/12 03:02:57;;;;;;;7.97;4.70;;;11.30;75.90;;;;;;5034059;28;20029;-75
2022/04/12 03:05:23;;;;;;;7.38;4.60;;;11.20;75.90;;;;;;5016377;28;20040;-74
2022/04/12 03:07:48;;;;;;;7.72;4.53;;;11.30;76.40;;;;;;5033666;28;20168;-75
2022/04/12 03:10:14;;;;;;;7.32;4.40;;;11.30;76.00;;;;;;5034242;28;20030;-76
2022/04/12 03:12:39;;;;;;;6.97;4.35;;;11.30;76.00;;;;;;5033954;28;20490;-75
2022/04/12 03:15:07;;;;;;;9.95;4.70;;;11.30;76.00;;;;;;5016686;28;20506;-75
2022/04/12 03:17:32;;;;;;;8.00;4.93;;;11.30;76.00;;;;;;5033636;28;20030;-74
2022/04/12 03:19:58;;;;;;;7.57;4.68;;;11.20;76.00;;;;;;5015541;28;20483;-76
2022/04/12 03:22:23;;;;;;;7.00;4.65;;;11.30;76.00;;;;;;5030491;28;20079;-74
2022/04/12 03:24:49;;;;;;;7.88;4.43;;;11.30;76.10;;;;;;5030939;28;20029;-77
2022/04/12 03:27:14;;;;;;;8.27;4.88;;;11.30;76.10;;;;;;5012960;28;20025;-75
2022/04/12 03:29:40;;;;;;;7.55;4.75;;;11.30;76.20;;;;;;5013507;28;20025;-75
2022/04/12 03:32:05;;;;;;;7.85;4.50;;;11.30;76.10;;;;;;5031127;28;20057;-76
2022/04/12 03:34:31;;;;;;;9.13;4.20;;;11.30;76.10;;;;;;5030962;28;20025;-74
2022/04/12 03:36:58;;;;;;;8.38;4.72;;;11.30;76.20;;;;;;5012816;28;20372;-75
2022/04/12 03:39:25;;;;;;;8.00;4.70;;;11.30;76.10;;;;;;5013074;28;20026;-75
2022/04/12 03:41:51;;;;;;;7.65;4.80;;;11.20;76.00;;;;;;5030749;28;20025;-76
2022/04/12 03:44:17;;;;;;;7.60;4.97;;;11.30;76.10;;;;;;5030574;28;20022;-75
2022/04/12 03:46:43;;;;;;;7.68;4.93;;;11.20;76.00;;;;;;5030092;28;20095;-75
2022/04/12 03:49:10;;;;;;;7.78;4.93;;;11.30;76.10;;;;;;5029179;28;20487;-76
2022/04/12 03:51:36;;;;;;;8.32;5.00;;;11.30;76.10;;;;;;5030446;28;20013;-75
2022/04/12 03:54:03;;;;;;;8.75;4.95;;;11.30;76.10;;;;;;5029288;28;20565;-76
2022/04/12 03:56:29;;;;;;;8.15;4.72;;;11.20;76.10;;;;;;5030135;28;20064;-75
2022/04/12 03:58:57;;;;;;;7.72;5.03;;;11.30;76.20;;;;;;5030473;28;20056;-75
2022/04/12 04:01:23;;;;;;;8.88;5.45;;;11.20;76.10;;;;;;5029406;28;20491;-77
2022/04/12 04:03:48;;;;;;;8.10;5.00;;;11.30;76.10;;;;;;5030303;28;20092;-76
2022/04/12 04:06:14;;;;;;;8.05;4.80;;;11.30;76.10;;;;;;5028594;28;20033;-75
2022/04/12 04:08:39;;;;;;;8.02;5.32;;;11.20;76.00;;;;;;5030129;28;20112;-76
2022/04/12 04:11:05;;;;;;;7.90;4.65;;;11.20;76.10;;;;;;5030157;28;20029;-76
2022/04/12 04:13:36;;;;;;;7.68;4.72;;;11.30;76.10;;;;;;5030149;28;20026;-76
2022/04/12 04:16:05;;;;;;;8.70;4.93;;;11.30;76.20;;;;;;5029877;28;20056;-76
2022/04/12 04:18:31;;;;;;;8.15;5.13;;;11.30;76.10;;;;;;5028942;28;20025;-75
2022/04/12 04:20:57;;;;;;;7.57;4.50;;;11.30;76.20;;;;;;5030110;28;20379;-74
2022/04/12 04:23:22;;;;;;;8.82;5.28;;;11.30;76.20;;;;;;5012234;28;20453;-76
2022/04/12 04:25:48;;;;;;;9.05;5.05;;;11.20;76.20;;;;;;5012498;28;20025;-76
2022/04/12 04:28:13;;;;;;;7.97;5.20;;;11.20;76.10;;;;;;5029513;28;20653;-74
2022/04/12 04:30:44;;;;;;;8.23;4.90;;;11.20;76.10;;;;;;5029386;28;20057;-76
2022/04/12 04:33:10;;;;;;;8.63;5.35;;;11.20;76.10;;;;;;5007438;28;20026;-76
2022/04/12 04:35:36;;;;;;;8.75;5.20;;;11.20;76.10;;;;;;5009417;28;20080;-74
2022/04/12 04:38:02;;;;;;;7.70;4.70;;;11.20;76.20;;;;;;5017817;28;20037;-75
2022/04/12 04:40:28;;;;;;;9.40;4.78;;;11.20;76.20;;;;;;5025222;28;20147;-75
2022/04/12 04:42:54;;;;;;;8.63;5.15;;;11.20;76.20;;;;;;5019967;28;20433;-76
2022/04/12 04:45:19;;;;;;;7.25;4.50;;;11.20;76.20;;;;;;5033339;28;20060;-75
2022/04/12 04:47:52;;;;;;;10.25;5.18;;;11.20;76.20;;;;;;5045165;28;20023;-76
2022/04/12 04:50:20;;;;;;;8.00;4.88;;;11.20;76.20;;;;;;5027285;28;20017;-75
2022/04/12 04:52:46;;;;;;;8.77;4.72;;;11.20;76.10;;;;;;5019816;28;20052;-75
2022/04/12 04:55:11;;;;;;;7.55;4.82;;;11.20;76.10;;;;;;5038530;28;20117;-76
2022/04/12 04:57:39;;;;;;;7.95;5.00;;;11.20;76.10;;;;;;5038254;28;20531;-76
2022/04/12 05:00:06;;;;;;;6.93;4.20;;;11.30;76.10;;;;;;5019945;28;20107;-77
2022/04/12 05:02:33;;;;;;;8.02;5.03;;;11.20;76.00;;;;;;5013671;28;20036;-75
2022/04/12 05:04:58;;;;;;;7.60;4.82;;;11.20;76.00;;;;;;5030036;28;20025;-76
2022/04/12 05:07:25;;;;;;;8.80;5.47;;;11.20;76.10;;;;;;5045524;28;20500;-75
2022/04/12 05:09:52;;;;;;;7.50;4.53;;;11.20;76.10;;;;;;5032934;28;20059;-74
2022/04/12 05:12:17;;;;;;;8.73;5.22;;;11.20;76.10;;;;;;5033428;28;20052;-74
2022/04/12 05:14:43;;;;;;;7.13;4.65;;;11.20;76.10;;;;;;5022350;28;20609;-75
2022/04/12 05:17:08;;;;;;;7.45;4.47;;;11.20;76.10;;;;;;5030477;28;20034;-74
2022/04/12 05:19:34;;;;;;;8.02;4.68;;;11.20;76.10;;;;;;5030407;28;20479;-73
2022/04/12 05:21:59;;;;;;;8.38;5.30;;;11.30;76.10;;;;;;5013016;28;20037;-75
2022/04/12 05:24:25;;;;;;;7.57;4.90;;;11.20;76.00;;;;;;5012929;28;20029;-75
2022/04/12 05:26:50;;;;;;;8.05;5.00;;;11.20;76.00;;;;;;5007700;28;20033;-77
2022/04/12 05:29:16;;;;;;;8.00;4.82;;;11.20;75.90;;;;;;5030545;28;20866;-74
2022/04/12 05:31:44;;;;;;;9.55;4.50;;;11.30;76.00;;;;;;5015964;28;20398;-75
2022/04/12 05:34:10;;;;;;;9.10;5.00;;;11.30;76.00;;;;;;5033088;28;20036;-76
2022/04/12 05:36:35;;;;;;;16.10;4.93;;;11.30;76.10;;;;;;5032395;28;20479;-74
2022/04/12 05:39:01;;;;;;;19.05;5.68;;;11.30;75.90;;;;;;5014705;28;20099;-74
2022/04/12 05:41:26;;;;;;;14.48;5.30;;;11.30;76.00;;;;;;5030985;28;20122;-77
2022/04/12 05:43:51;;;;;;;14.68;5.47;;;11.30;76.00;;;;;;5030125;28;20025;-77
2022/04/12 05:46:17;;;;;;;14.57;5.03;;;11.30;75.90;;;;;;5012208;28;20449;-77
2022/04/12 05:48:42;;;;;;;11.95;5.60;;;11.30;75.80;;;;;;5030015;28;20030;-76
2022/04/12 05:51:08;;;;;;;11.73;5.13;;;11.30;75.80;;;;;;5030205;28;20041;-76
2022/04/12 05:53:34;;;;;;;13.18;5.65;;;11.30;75.70;;;;;;5030309;28;20025;-75
2022/04/12 05:56:00;;;;;;;13.15;5.60;;;11.30;75.70;;;;;;5012974;28;20021;-75
2022/04/12 05:58:25;;;;;;;11.25;5.00;;;11.30;75.70;;;;;;5031568;28;20048;-75
2022/04/12 06:00:51;;;;;;;11.68;5.03;;;11.30;75.80;;;;;;5014148;28;20111;-76
2022/04/12 06:03:16;;;;;;;9.82;4.75;;;11.30;75.80;;;;;;5031649;28;20479;-75
2022/04/12 06:05:42;;;;;;;11.60;5.38;;;11.30;75.70;;;;;;5031650;28;20113;-74
2022/04/12 06:08:08;;;;;;;13.93;4.78;;;11.30;75.80;;;;;;5031818;28;20029;-76
2022/04/12 06:10:33;;;;;;;9.77;4.63;;;11.30;75.80;;;;;;5014010;28;20021;-74
2022/04/12 06:12:59;;;;;;;9.63;5.10;;;11.30;75.70;;;;;;5031754;28;20407;-75
2022/04/12 06:15:26;;;;;;;9.27;4.88;;;11.30;75.70;;;;;;5031570;28;20490;-72
2022/04/12 06:17:51;;;;;;;9.73;4.97;;;11.30;75.80;;;;;;5031533;28;20030;-74
2022/04/12 06:20:18;;;;;;;10.25;5.30;;;11.30;75.80;;;;;;5031539;28;20048;-75
2022/04/12 06:22:44;;;;;;;9.10;4.80;;;11.30;75.80;;;;;;5031780;28;20616;-74
2022/04/12 06:25:11;;;;;;;10.52;4.65;;;11.40;75.80;;;;;;5013920;28;20036;-77
2022/04/12 06:27:39;;;;;;;10.40;4.88;;;11.40;75.70;;;;;;5031179;28;20030;-75
2022/04/12 06:30:07;;;;;;;9.15;5.05;;;11.40;75.70;;;;;;5031522;28;20032;-75
2022/04/12 06:32:34;;;;;;;8.88;4.57;;;11.40;75.60;;;;;;5031697;28;20036;-75
2022/04/12 06:35:00;;;;;;;9.00;4.70;;;11.40;75.60;;;;;;5013909;28;20029;-75
2022/04/12 06:37:26;;;;;;;9.50;4.78;;;11.40;75.50;;;;;;5031279;28;20033;-75
2022/04/12 06:39:52;;;;;;;9.40;4.78;;;11.40;75.50;;;;;;5013792;28;20025;-75
2022/04/12 06:42:18;;;;;;;7.57;4.30;;;11.50;75.40;;;;;;5031348;28;20441;-75
2022/04/12 06:44:44;;;;;;;10.20;4.82;;;11.50;75.20;;;;;;5031551;28;20061;-75
2022/04/12 06:47:09;;;;;;;7.57;4.57;;;11.60;75.10;;;;;;5013269;28;20021;-75
2022/04/12 06:49:35;;;;;;;9.85;5.20;;;11.60;75.00;;;;;;5013747;28;20026;-75
2022/04/12 06:52:00;;;;;;;8.02;4.32;;;11.60;75.00;;;;;;5031397;28;20390;-76
2022/04/12 06:54:26;;;;;;;9.20;4.93;;;11.60;74.80;;;;;;5013676;28;20486;-76
2022/04/12 06:56:52;;;;;;;7.65;4.60;;;11.60;74.90;;;;;;5016050;28;20491;-75
2022/04/12 06:59:17;;;;;;;10.50;4.32;;;11.60;74.90;;;;;;5034895;28;20047;-74
2022/04/12 07:01:43;;;;;;;9.40;4.82;;;11.60;74.90;;;;;;5035098;28;20095;-75
2022/04/12 07:04:09;;;;;;;10.60;5.43;;;11.60;74.90;;;;;;5035010;28;20399;-75
2022/04/12 07:06:35;;;;;;;8.85;4.95;;;11.70;75.00;;;;;;5034587;28;20022;-74
2022/04/12 07:09:01;;;;;;;8.57;4.18;;;11.60;75.00;;;;;;5017244;28;20381;-78
2022/04/12 07:11:26;;;;;;;9.10;5.18;;;11.60;75.00;;;;;;5034850;28;20033;-75
2022/04/12 07:13:52;;;;;;;9.32;4.65;;;11.60;75.00;;;;;;5035071;28;20446;-75
2022/04/12 07:16:17;;;;;;;8.05;4.82;;;11.70;75.00;;;;;;5034318;28;20061;-74
2022/04/12 07:18:43;;;;;;;7.85;4.63;;;11.70;75.00;;;;;;5034855;28;20390;-73
2022/04/12 07:21:08;;;;;;;9.25;4.75;;;11.60;75.00;;;;;;5016968;28;20669;-73
2022/04/12 07:23:36;;;;;;;7.20;4.40;;;11.70;75.10;;;;;;5034599;28;20040;-74
2022/04/12 07:26:04;;;;;;;8.88;4.57;;;11.70;75.00;;;;;;5016640;28;20553;-75
2022/04/12 07:28:30;;;;;;;8.18;4.90;;;11.70;75.00;;;;;;5016680;28;20029;-75
2022/04/12 07:30:56;;;;;;;7.47;4.63;;;11.70;74.80;;;;;;5034518;28;20026;-75
2022/04/12 07:33:21;;;;;;;7.85;4.57;;;11.70;74.80;;;;;;5034204;28;20425;-74
2022/04/12 07:35:47;;;;;;;10.20;4.72;;;11.80;74.80;;;;;;5034143;28;20026;-75
2022/04/12 07:38:12;;;;;;;7.57;4.50;;;11.70;74.70;;;;;;5016532;28;20109;-75
2022/04/12 07:40:38;;;;;;;7.85;4.38;;;11.80;74.70;;;;;;5016724;28;20042;-74
2022/04/12 07:43:04;;;;;;;7.57;4.18;;;11.80;74.70;;;;;;5034233;28;20026;-74
2022/04/12 07:45:29;;;;;;;8.75;4.50;;;11.90;74.60;;;;;;5033893;28;20109;-75
2022/04/12 07:47:55;;;;;;;9.00;4.45;;;11.80;74.50;;;;;;5033966;28;20080;-75
2022/04/12 07:50:21;;;;;;;6.90;4.40;;;11.90;74.50;;;;;;5034009;28;20029;-74
2022/04/12 07:52:47;;;;;;;7.30;4.47;;;11.90;74.50;;;;;;5016255;28;20126;-77
2022/04/12 07:55:12;;;;;;;7.50;4.30;;;11.90;74.50;;;;;;5016206;28;20114;-74
2022/04/12 07:57:38;;;;;;;7.28;4.18;;;11.90;74.50;;;;;;5033687;28;20171;-74
2022/04/12 08:00:04;;;;;;;6.97;4.30;;;11.90;74.40;;;;;;5016084;28;20048;-75
2022/04/12 08:02:30;;;;;;;7.90;4.47;;;11.90;74.30;;;;;;5033853;28;20049;-74
2022/04/12 08:04:55;;;;;;;7.85;4.05;;;12.00;74.40;;;;;;5016133;28;20114;-76
2022/04/12 08:07:21;;;;;;;6.90;4.50;;;12.00;74.30;;;;;;5015366;28;20117;-74
2022/04/12 08:09:46;;;;;;;7.50;4.47;;;12.00;74.30;;;;;;5033770;28;20096;-73
2022/04/12 08:12:12;;;;;;;7.63;4.20;;;12.00;74.20;;;;;;5033904;28;20048;-75
2022/04/12 08:14:38;;;;;;;8.38;4.50;;;12.00;74.20;;;;;;5033657;28;20023;-74
2022/04/12 08:17:04;;;;;;;8.25;4.25;;;12.00;74.10;;;;;;5033559;28;20025;-76
2022/04/12 08:19:29;;;;;;;7.95;4.10;;;12.00;74.10;;;;;;5015766;28;20029;-74
2022/04/12 08:21:55;;;;;;;6.95;4.07;;;12.00;74.10;;;;;;5033589;28;20097;-73
2022/04/12 08:24:21;;;;;;;7.13;4.30;;;12.00;74.10;;;;;;5033381;28;20029;-74
2022/04/12 08:26:47;;;;;;;7.75;4.18;;;12.00;74.00;;;;;;5033133;28;20033;-75
2022/04/12 08:29:13;;;;;;;6.63;3.97;;;12.10;74.00;;;;;;5015722;28;20026;-77
2022/04/12 08:31:39;;;;;;;7.03;4.10;;;12.10;74.00;;;;;;5033431;28;20525;-72
2022/04/12 08:34:05;;;;;;;7.78;4.43;;;12.10;74.00;;;;;;5015527;28;20032;-75
2022/04/12 08:36:30;;;;;;;7.70;4.55;;;12.10;73.80;;;;;;5032884;28;20026;-74
2022/04/12 08:38:56;;;;;;;7.68;3.95;;;12.10;73.80;;;;;;5033325;28;20391;-74
2022/04/12 08:41:23;;;;;;;6.82;4.00;;;12.20;73.80;;;;;;5015358;28;20088;-78
2022/04/12 08:43:56;;;;;;;6.85;4.03;;;12.20;73.70;;;;;;5015338;28;20028;-74
2022/04/12 08:46:25;;;;;;;8.68;4.30;;;12.20;73.70;;;;;;5032684;28;20133;-74
2022/04/12 08:48:53;;;;;;;7.10;3.97;;;12.20;73.60;;;;;;5032918;28;20022;-75
2022/04/12 08:51:18;;;;;;;7.60;4.10;;;12.20;73.60;;;;;;5032786;28;20014;-74
2022/04/12 08:53:45;;;;;;;5.65;3.38;;;12.20;73.60;;;;;;5032857;28;20036;-74
2022/04/12 08:56:11;;;;;;;6.78;4.05;;;12.30;73.60;;;;;;5032472;28;20118;-75
2022/04/12 08:58:37;;;;;;;7.13;4.30;;;12.30;73.50;;;;;;5032719;28;20037;-74
2022/04/12 09:01:02;;;;;;;7.57;4.10;;;12.30;73.50;;;;;;5015146;28;20029;-77
2022/04/12 09:03:28;;;;;;;6.72;4.00;;;12.30;73.40;;;;;;5032677;28;20487;-75
2022/04/12 09:05:54;;;;;;;7.45;4.38;;;12.30;73.40;;;;;;5032290;28;20104;-74
2022/04/12 09:08:30;;;;;;;7.45;3.90;;;12.40;73.40;;;;;;5032490;28;20037;-74
2022/04/12 09:10:58;;;;;;;6.30;3.70;;;12.40;73.30;;;;;;5032714;28;20060;-75
2022/04/12 09:13:24;;;;;;;8.05;3.88;;;12.40;73.40;;;;;;5032751;28;20032;-74
2022/04/12 09:15:50;;;;;;;6.18;3.65;;;12.40;73.30;;;;;;5032265;28;20391;-75
2022/04/12 09:18:40;;;;;;;6.70;4.07;;;12.40;73.30;;;;;;5031623;28;20071;-77
2022/04/12 09:21:19;;;;;;;6.45;3.67;;;12.40;73.20;;;;;;5015087;28;20031;-74
2022/04/12 09:23:53;;;;;;;6.72;3.90;;;12.50;73.20;;;;;;5032450;28;20036;-75
2022/04/12 09:26:21;;;;;;;7.22;4.22;;;12.50;73.20;;;;;;5014268;28;20025;-76
2022/04/12 09:28:46;;;;;;;7.95;4.03;;;12.50;73.20;;;;;;5032254;28;20025;-75
2022/04/12 09:31:14;;;;;;;7.30;3.85;;;12.50;73.20;;;;;;5032125;28;20173;-77
2022/04/12 09:33:41;;;;;;;6.45;3.92;;;12.50;73.20;;;;;;5014643;28;20296;-74
2022/04/12 09:36:07;;;;;;;7.22;3.90;;;12.50;73.10;;;;;;5032120;28;20026;-74
2022/04/12 09:38:35;;;;;;;6.60;3.70;;;12.50;73.10;;;;;;5032104;28;20087;-74
2022/04/12 09:41:20;;;;;;;6.43;3.72;;;12.50;73.00;;;;;;5032159;28;20036;-74
2022/04/12 09:43:55;;;;;;;6.00;3.60;;;12.50;73.00;;;;;;5032103;28;20025;-74
2022/04/12 09:46:21;;;;;;;6.90;3.80;;;12.50;73.00;;;;;;5031647;28;20021;-74
2022/04/12 09:48:48;;;;;;;6.18;3.60;;;12.60;73.60;;;;;;5014076;28;20032;-74
2022/04/12 09:51:15;;;;;;;6.75;3.72;;;12.60;73.00;;;;;;5014130;28;20055;-74
2022/04/12 09:53:42;;;;;;;6.43;3.45;;;12.60;73.00;;;;;;5031907;28;20018;-74
2022/04/12 09:56:25;;;;;;;6.65;3.70;;;12.60;73.00;;;;;;5031434;28;20053;-75
2022/04/12 09:58:53;;;;;;;7.20;3.50;;;12.60;72.90;;;;;;5031973;28;20021;-74
2022/04/12 10:01:20;;;;;;;7.53;3.60;;;12.70;72.90;;;;;;5031875;28;20025;-74
2022/04/12 10:03:49;;;;;;;6.65;3.83;;;12.70;72.80;;;;;;5014145;28;20022;-75
2022/04/12 10:06:19;;;;;;;6.22;3.60;;;12.70;72.80;;;;;;5031459;28;20025;-74
2022/04/12 10:08:46;;;;;;;6.20;3.53;;;12.70;73.20;;;;;;5031626;28;20418;-75
2022/04/12 10:11:13;;;;;;;6.53;3.75;;;12.70;72.70;;;;;;5013997;28;20022;-74
2022/04/12 10:13:39;;;;;;;6.35;3.72;;;12.70;72.60;;;;;;5031698;28;20102;-75
2022/04/12 10:16:07;;;;;;;6.57;3.60;;;12.80;72.60;;;;;;5031314;28;20490;-74
2022/04/12 10:18:33;;;;;;;7.78;3.65;;;12.80;72.60;;;;;;5031639;28;20116;-77
2022/04/12 10:20:59;;;;;;;7.13;4.15;;;12.80;72.60;;;;;;5031594;28;20086;-77
2022/04/12 10:23:26;;;;;;;6.63;3.92;;;12.80;72.50;;;;;;5031431;28;20509;-76
2022/04/12 10:25:54;;;;;;;5.47;3.17;;;12.80;72.60;;;;;;5031370;28;20117;-74
2022/04/12 10:28:22;;;;;;;6.43;3.67;;;12.80;72.50;;;;;;5031494;28;20043;-74
2022/04/12 10:30:47;;;;;;;8.23;3.70;;;12.80;72.50;;;;;;5016608;28;20479;-75
2022/04/12 10:33:17;;;;;;;6.40;3.67;;;12.80;72.50;;;;;;5035477;28;20036;-74
2022/04/12 10:35:45;;;;;;;7.60;4.45;;;12.80;72.40;;;;;;5035338;28;20022;-74
2022/04/12 10:38:12;;;;;;;10.07;5.13;;;12.90;71.90;;;;;;5036224;28;20032;-74
2022/04/12 10:40:42;;;;;;;11.02;5.55;;;13.20;71.60;;;;;;5036065;28;20030;-77
2022/04/12 10:43:10;;;;;;;15.05;5.85;;;13.40;71.00;;;;;;5035972;28;20029;-75
2022/04/12 10:45:37;;;;;;;14.05;6.72;;;13.60;70.40;;;;;;5017947;28;20470;-74
2022/04/12 10:48:03;;;;;;;15.43;6.38;;;13.80;69.50;;;;;;5018174;28;20112;-74
2022/04/12 10:50:42;;;;;;;18.55;6.65;;;13.80;69.10;;;;;;5018039;28;20029;-74
2022/04/12 10:53:07;;;;;;;13.90;6.45;;;13.90;69.20;;;;;;5035944;28;20025;-74
2022/04/12 10:55:40;;;;;;;16.70;6.72;;;13.90;69.40;;;;;;5016205;28;20038;-75
2022/04/12 10:58:13;;;;;;;17.27;6.80;;;14.00;68.70;;;;;;5013477;28;20026;-74
2022/04/12 11:00:41;;;;;;;15.88;6.78;;;14.00;68.80;;;;;;4996016;28;20030;-75
2022/04/12 11:03:08;;;;;;;16.33;6.47;;;13.80;69.70;;;;;;5033999;28;20030;-74
2022/04/12 11:05:39;;;;;;;15.55;7.25;;;13.60;70.30;;;;;;5020994;28;20371;-74
2022/04/12 11:08:15;;;;;;;18.25;6.28;;;13.50;70.90;;;;;;5034220;28;20030;-73
2022/04/12 11:11:00;;;;;;;14.70;6.18;;;13.40;71.30;;;;;;5015078;28;20483;-74
2022/04/12 11:13:31;;;;;;;14.82;6.80;;;13.30;71.60;;;;;;4994197;28;20407;-74
2022/04/12 11:16:00;;;;;;;14.27;6.70;;;13.20;71.80;;;;;;4997773;28;20029;-75
2022/04/12 11:18:45;;;;;;;17.58;7.32;;;13.20;72.10;;;;;;5015541;28;20028;-76
2022/04/12 11:21:10;;;;;;;13.60;6.43;;;13.20;72.20;;;;;;4997911;28;20034;-74
2022/04/12 11:23:54;;;;;;;16.80;6.20;;;13.20;72.30;;;;;;5015216;28;20117;-77
2022/04/12 11:26:44;;;;;;;16.55;6.30;;;13.20;72.30;;;;;;5027621;28;20060;-78
2022/04/12 11:29:17;;;;;;;15.23;6.80;;;13.10;72.40;;;;;;5014796;28;20526;-74
2022/04/12 11:31:54;;;;;;;17.50;6.53;;;13.10;72.40;;;;;;5018323;28;20571;-73
2022/04/12 11:34:21;;;;;;;15.80;6.60;;;13.10;72.40;;;;;;4997230;28;20030;-74
2022/04/12 11:36:50;;;;;;;14.10;5.97;;;13.10;73.00;;;;;;5022039;28;20045;-74
2022/04/12 11:39:21;;;;;;;14.80;6.07;;;13.10;72.50;;;;;;5032999;28;20028;-74
2022/04/12 11:41:47;;;;;;;14.40;6.40;;;13.10;72.50;;;;;;5015812;28;20044;-74
2022/04/12 11:44:13;;;;;;;15.35;6.15;;;13.10;72.60;;;;;;5033480;28;20025;-74
2022/04/12 11:46:38;;;;;;;13.88;5.97;;;13.10;72.60;;;;;;5033662;28;20056;-74
2022/04/12 11:49:08;;;;;;;13.18;6.10;;;13.10;72.60;;;;;;5033915;28;20029;-74
2022/04/12 11:51:42;;;;;;;14.10;5.90;;;13.10;72.60;;;;;;4999904;28;20022;-74
2022/04/12 11:54:30;;;;;;;11.65;5.30;;;13.10;72.70;;;;;;5014173;28;20058;-73
2022/04/12 11:57:20;;;;;;;12.68;5.60;;;13.10;72.70;;;;;;5028658;28;20036;-74
2022/04/12 12:00:00;;;;;;;13.15;5.80;;;13.10;72.80;;;;;;5033737;28;20124;-74
2022/04/12 12:02:28;;;;;;;13.35;5.45;;;13.10;72.80;;;;;;5015818;28;20033;-74
2022/04/12 12:04:57;;;;;;;12.93;5.40;;;13.10;72.80;;;;;;5033124;28;20033;-74
2022/04/12 12:07:24;;;;;;;12.80;5.18;;;13.10;72.90;;;;;;5014166;28;20022;-73
2022/04/12 12:10:09;;;;;;;12.27;5.88;;;13.20;72.60;;;;;;5029640;28;20094;-74
2022/04/12 12:12:40;;;;;;;12.20;6.10;;;13.40;72.50;;;;;;5014481;28;20022;-74
2022/04/12 12:15:14;;;;;;;20.83;5.97;;;13.60;71.60;;;;;;5033298;28;20033;-75
2022/04/12 12:17:40;;;;;;;17.58;6.05;;;13.60;71.60;;;;;;5031775;28;20573;-74
2022/04/12 12:20:08;;;;;;;15.82;6.05;;;13.50;71.90;;;;;;5028900;28;20036;-74
2022/04/12 12:22:37;;;;;;;18.63;6.32;;;13.40;72.20;;;;;;5036983;28;20033;-74
2022/04/12 12:25:04;;;;;;;16.83;6.03;;;13.30;72.40;;;;;;5046798;28;20033;-74
2022/04/12 12:27:32;;;;;;;13.82;5.63;;;13.30;72.70;;;;;;5032454;28;20033;-74
2022/04/12 12:30:09;;;;;;;15.57;5.72;;;13.20;72.90;;;;;;5015923;28;20026;-73
2022/04/12 12:32:36;;;;;;;12.88;6.00;;;13.20;73.00;;;;;;5030262;28;20025;-75
2022/04/12 12:35:05;;;;;;;16.00;6.03;;;13.20;73.10;;;;;;5016052;28;20029;-74
2022/04/12 12:37:30;;;;;;;14.70;6.15;;;13.20;73.20;;;;;;5041923;28;20025;-74
2022/04/12 12:39:56;;;;;;;14.65;5.78;;;13.10;73.20;;;;;;5037083;28;20029;-74
2022/04/12 12:42:22;;;;;;;14.98;5.40;;;13.10;73.30;;;;;;5031607;28;20025;-74
2022/04/12 12:44:48;;;;;;;13.93;5.63;;;13.10;73.30;;;;;;5046059;28;20021;-74
2022/04/12 12:47:15;;;;;;;13.98;5.60;;;13.10;73.40;;;;;;5037071;28;20033;-74